createdAt,value
2023-12-21T00:01:39.240Z,96761.84
2023-12-21T00:04:08.023Z,96769.47
2023-12-21T00:06:36.084Z,96767.72
2023-12-21T00:09:03.801Z,96757.78
2023-12-21T00:11:31.496Z,96755.16
2023-12-21T00:14:00.495Z,96735.72
2023-12-21T00:16:29.242Z,96752.81
2023-12-21T00:18:59.321Z,96747.97
2023-12-21T00:21:27.106Z,96750.38
2023-12-21T00:23:54.769Z,96735.34
2023-12-21T00:26:22.428Z,96748.06
2023-12-21T00:28:50.201Z,96739.81
2023-12-21T00:31:17.925Z,96734.97
2023-12-21T00:33:45.638Z,96730.91
2023-12-21T00:36:20.074Z,96732.63
2023-12-21T00:38:47.750Z,96723.06
2023-12-21T00:41:15.435Z,96712.91
2023-12-21T00:43:43.083Z,96714.69
2023-12-21T00:46:10.736Z,96714.06
2023-12-21T00:48:38.508Z,96711.03
2023-12-21T00:51:07.675Z,96714.78
2023-12-21T00:53:36.699Z,96702.22
2023-12-21T00:56:04.530Z,96696.84
2023-12-21T00:58:32.208Z,96721.59
2023-12-21T01:01:00.275Z,96701.38
2023-12-21T01:03:28.052Z,96698.78
2023-12-21T01:05:55.765Z,96694.00
2023-12-21T01:08:23.594Z,96703.44
2023-12-21T01:10:52.572Z,96699.81
2023-12-21T01:13:20.299Z,96694.97
2023-12-21T01:15:47.982Z,96680.38
2023-12-21T01:18:15.669Z,96683.94
2023-12-21T01:20:43.543Z,96685.66
2023-12-21T01:23:11.243Z,96673.81
2023-12-21T01:25:38.972Z,96674.25
2023-12-21T01:28:08.311Z,96669.78
2023-12-21T01:30:35.838Z,96680.38
2023-12-21T01:33:03.616Z,96673.91
2023-12-21T01:35:31.553Z,96662.56
2023-12-21T01:37:59.262Z,96681.16
2023-12-21T01:40:26.960Z,96669.13
2023-12-21T01:42:54.666Z,96668.69
2023-12-21T01:45:23.727Z,96668.22
2023-12-21T01:47:52.770Z,96679.44
2023-12-21T01:50:20.984Z,96675.44
2023-12-21T01:52:49.929Z,96646.69
2023-12-21T01:55:18.684Z,96643.72
2023-12-21T01:57:46.822Z,96639.31
2023-12-21T02:00:15.687Z,96628.38
2023-12-21T02:02:44.850Z,96628.50
2023-12-21T02:05:12.637Z,96630.41
2023-12-21T02:07:41.899Z,96625.31
2023-12-21T02:10:10.885Z,96619.59
2023-12-21T02:12:38.622Z,96613.06
2023-12-21T02:15:08.062Z,96625.44
2023-12-21T02:17:36.904Z,96610.09
2023-12-21T02:20:08.237Z,96617.19
2023-12-21T02:22:36.800Z,96606.81
2023-12-21T02:25:06.728Z,96611.56
2023-12-21T02:27:35.240Z,96610.00
2023-12-21T02:30:02.864Z,96598.25
2023-12-21T02:32:30.568Z,96598.34
2023-12-21T02:34:58.241Z,96596.53
2023-12-21T02:37:25.984Z,96598.00
2023-12-21T02:39:53.605Z,96591.06
2023-12-21T02:42:22.547Z,96585.56
2023-12-21T02:44:50.199Z,96585.97
2023-12-21T02:47:17.880Z,96597.78
2023-12-21T02:49:45.559Z,96571.16
2023-12-21T02:52:14.753Z,96562.38
2023-12-21T02:54:42.254Z,96545.69
2023-12-21T02:57:09.827Z,96551.50
2023-12-21T02:59:38.784Z,96542.84
2023-12-21T03:02:06.443Z,96536.50
2023-12-21T03:04:34.168Z,96519.91
2023-12-21T03:07:01.994Z,96502.25
2023-12-21T03:09:29.922Z,96511.97
2023-12-21T03:11:57.560Z,96521.47
2023-12-21T03:14:25.216Z,96528.34
2023-12-21T03:16:54.136Z,96522.34
2023-12-21T03:19:21.995Z,96509.66
2023-12-21T03:21:49.684Z,96508.16
2023-12-21T03:24:17.268Z,96493.47
2023-12-21T03:26:46.916Z,96493.06
2023-12-21T03:29:14.517Z,96488.50
2023-12-21T03:31:42.172Z,96501.00
2023-12-21T03:34:11.258Z,96494.94
2023-12-21T03:36:38.939Z,96479.84
2023-12-21T03:39:06.533Z,96473.50
2023-12-21T03:41:34.127Z,96462.09
2023-12-21T03:44:01.746Z,96463.44
2023-12-21T03:46:29.482Z,96461.56
2023-12-21T03:48:57.569Z,96488.00
2023-12-21T03:51:26.929Z,96503.72
2023-12-21T03:53:54.578Z,96498.22
2023-12-21T03:56:24.249Z,96477.06
2023-12-21T03:58:51.854Z,96474.97
2023-12-21T04:01:25.372Z,96458.25
2023-12-21T04:03:53.080Z,96454.47
2023-12-21T04:06:20.697Z,96455.19
2023-12-21T04:08:49.840Z,96470.13
2023-12-21T04:11:18.185Z,96460.38
2023-12-21T04:13:48.427Z,96455.19
2023-12-21T04:16:16.486Z,96447.06
2023-12-21T04:18:44.950Z,96442.81
2023-12-21T04:21:12.659Z,96446.31
2023-12-21T04:23:40.281Z,96443.34
2023-12-21T04:26:09.209Z,96442.59
2023-12-21T04:28:36.911Z,96431.81
2023-12-21T04:31:04.760Z,96432.75
2023-12-21T04:33:32.484Z,96441.78
2023-12-21T04:36:00.114Z,96430.63
2023-12-21T04:38:27.792Z,96423.66
2023-12-21T04:40:55.372Z,96414.03
2023-12-21T04:43:24.506Z,96415.00
2023-12-21T04:45:52.232Z,96405.16
2023-12-21T04:48:19.934Z,96400.38
2023-12-21T04:50:47.711Z,96397.63
2023-12-21T04:53:15.356Z,96416.78
2023-12-21T04:55:43.068Z,96411.25
2023-12-21T04:58:10.719Z,96406.91
2023-12-21T05:00:41.571Z,96395.41
2023-12-21T05:03:09.249Z,96386.38
2023-12-21T05:05:36.962Z,96386.63
2023-12-21T05:08:04.925Z,96376.88
2023-12-21T05:10:32.538Z,96377.38
2023-12-21T05:13:00.256Z,96383.41
2023-12-21T05:15:27.960Z,96385.53
2023-12-21T05:17:56.970Z,96387.47
2023-12-21T05:20:24.653Z,96385.66
2023-12-21T05:22:52.402Z,96381.94
2023-12-21T05:25:20.109Z,96382.69
2023-12-21T05:27:47.730Z,96382.69
2023-12-21T05:30:18.341Z,96371.38
2023-12-21T05:32:46.433Z,96355.50
2023-12-21T05:35:15.726Z,96361.97
2023-12-21T05:37:43.397Z,96358.38
2023-12-21T05:40:13.497Z,96352.97
2023-12-21T05:42:41.191Z,96354.88
2023-12-21T05:45:09.522Z,96350.09
2023-12-21T05:47:37.180Z,96337.31
2023-12-21T05:50:05.960Z,96335.28
2023-12-21T05:52:34.967Z,96342.41
2023-12-21T05:55:03.611Z,96337.94
2023-12-21T05:57:31.296Z,96338.66
2023-12-21T05:59:58.898Z,96340.38
2023-12-21T06:02:26.552Z,96332.22
2023-12-21T06:04:54.226Z,96327.88
2023-12-21T06:07:21.877Z,96334.13
2023-12-21T06:09:51.301Z,96323.44
2023-12-21T06:12:18.963Z,96312.75
2023-12-21T06:14:46.566Z,96314.53
2023-12-21T06:17:16.124Z,96311.56
2023-12-21T06:19:44.290Z,96290.84
2023-12-21T06:22:12.000Z,96295.06
2023-12-21T06:24:39.637Z,96290.38
2023-12-21T06:27:08.662Z,96286.19
2023-12-21T06:29:36.271Z,96246.44
2023-12-21T06:32:04.355Z,96256.69
2023-12-21T06:34:32.231Z,96250.69
2023-12-21T06:37:00.016Z,96233.72
2023-12-21T06:39:27.661Z,96233.47
2023-12-21T06:41:55.262Z,96256.13
2023-12-21T06:44:24.328Z,96240.25
2023-12-21T06:46:52.763Z,96241.44
2023-12-21T06:49:20.575Z,96255.19
2023-12-21T06:51:48.343Z,96241.50
2023-12-21T06:54:16.050Z,96255.69
2023-12-21T06:56:43.691Z,96242.31
2023-12-21T06:59:11.330Z,96243.66
2023-12-21T07:01:40.401Z,96244.88
2023-12-21T07:04:09.567Z,96248.13
2023-12-21T07:06:37.105Z,96251.13
2023-12-21T07:09:04.889Z,96246.28
2023-12-21T07:11:33.372Z,96231.63
2023-12-21T07:14:00.997Z,96238.47
2023-12-21T07:16:28.726Z,96207.91
2023-12-21T07:18:57.913Z,96206.81
2023-12-21T07:21:25.705Z,96203.34
2023-12-21T07:23:53.330Z,96192.63
2023-12-21T07:26:20.977Z,96183.97
2023-12-21T07:28:48.564Z,96189.72
2023-12-21T07:31:17.322Z,96185.88
2023-12-21T07:33:45.450Z,96177.69
2023-12-21T07:36:16.453Z,96173.38
2023-12-21T07:38:44.229Z,96169.25
2023-12-21T07:41:12.809Z,96182.63
2023-12-21T07:43:40.463Z,96173.00
2023-12-21T07:46:10.147Z,96172.84
2023-12-21T07:48:38.059Z,96181.31
2023-12-21T07:51:06.461Z,96184.19
2023-12-21T07:53:35.530Z,96193.09
2023-12-21T07:56:04.134Z,96171.31
2023-12-21T07:58:32.153Z,96162.13
2023-12-21T08:01:00.053Z,96166.00
2023-12-21T08:03:27.695Z,96168.53
2023-12-21T08:05:56.367Z,96179.13
2023-12-21T08:08:24.030Z,96177.66
2023-12-21T08:10:53.354Z,96178.38
2023-12-21T08:13:21.119Z,96187.03
2023-12-21T08:15:48.997Z,96184.38
2023-12-21T08:18:17.623Z,96163.19
2023-12-21T08:20:48.750Z,96154.53
2023-12-21T08:23:16.459Z,96151.03
2023-12-21T08:25:44.673Z,96148.03
2023-12-21T08:28:14.002Z,96139.31
2023-12-21T08:30:42.780Z,96122.22
2023-12-21T08:33:10.677Z,96121.50
2023-12-21T08:35:38.736Z,96130.41
2023-12-21T08:38:06.370Z,96126.50
2023-12-21T08:40:34.302Z,96136.88
2023-12-21T08:43:02.005Z,96129.91
2023-12-21T08:45:30.965Z,96142.78
2023-12-21T08:47:58.679Z,96154.00
2023-12-21T08:50:26.989Z,96156.41
2023-12-21T08:52:54.760Z,96142.91
2023-12-21T08:55:22.528Z,96107.94
2023-12-21T08:57:50.181Z,96113.75
2023-12-21T09:00:19.111Z,96106.78
2023-12-21T09:02:48.326Z,96104.22
2023-12-21T09:05:16.172Z,96109.41
2023-12-21T09:07:44.015Z,96110.34
2023-12-21T09:10:11.774Z,96108.88
2023-12-21T09:12:39.872Z,96111.06
2023-12-21T09:15:09.357Z,96102.16
2023-12-21T09:17:37.338Z,96092.00
2023-12-21T09:20:09.357Z,96072.59
2023-12-21T09:22:38.107Z,96062.78
2023-12-21T09:25:06.761Z,96063.53
2023-12-21T09:27:35.569Z,96055.47
2023-12-21T09:30:06.375Z,96068.22
2023-12-21T09:32:34.248Z,96080.47
2023-12-21T09:35:02.033Z,96065.31
2023-12-21T09:37:31.056Z,96053.38
2023-12-21T09:39:59.754Z,96055.84
2023-12-21T09:42:29.496Z,96044.38
2023-12-21T09:44:57.308Z,96034.41
2023-12-21T09:47:26.533Z,96017.94
2023-12-21T09:49:55.440Z,96025.22
2023-12-21T09:52:23.776Z,96026.47
2023-12-21T09:54:54.143Z,96021.31
2023-12-21T09:57:24.531Z,95989.06
2023-12-21T09:59:53.498Z,96000.81
2023-12-21T10:02:22.982Z,96004.28
2023-12-21T10:04:50.677Z,96005.41
2023-12-21T10:07:18.493Z,96008.47
2023-12-21T10:09:46.719Z,96021.47
2023-12-21T10:12:15.748Z,96023.03
2023-12-21T10:14:44.924Z,96006.81
2023-12-21T10:17:12.663Z,96006.97
2023-12-21T10:19:40.298Z,95987.84
2023-12-21T10:22:08.576Z,95970.38
2023-12-21T10:24:36.285Z,95947.63
2023-12-21T10:27:04.756Z,95938.13
2023-12-21T10:29:33.861Z,95927.38
2023-12-21T10:32:01.687Z,95921.78
2023-12-21T10:34:30.017Z,95893.38
2023-12-21T10:37:02.116Z,95908.78
2023-12-21T10:39:31.188Z,95902.91
2023-12-21T10:41:59.809Z,95890.88
2023-12-21T10:44:27.571Z,95880.25
2023-12-21T10:46:56.927Z,95861.50
2023-12-21T10:49:25.740Z,95841.22
2023-12-21T10:51:55.160Z,95822.03
2023-12-21T10:54:23.689Z,95841.63
2023-12-21T10:56:52.091Z,95807.53
2023-12-21T10:59:21.924Z,95805.41
2023-12-21T11:01:50.336Z,95804.13
2023-12-21T11:04:22.286Z,95817.13
2023-12-21T11:06:51.278Z,95791.56
2023-12-21T11:09:21.070Z,95775.03
2023-12-21T11:11:49.103Z,95791.38
2023-12-21T11:14:18.402Z,95758.91
2023-12-21T11:16:50.837Z,95753.75
2023-12-21T11:19:24.681Z,95759.28
2023-12-21T11:21:52.473Z,95749.56
2023-12-21T11:24:23.517Z,95740.03
2023-12-21T11:26:52.327Z,95747.69
2023-12-21T11:29:25.068Z,95722.59
2023-12-21T11:31:53.075Z,95712.94
2023-12-21T11:34:25.970Z,95701.00
2023-12-21T11:36:58.704Z,95698.34
2023-12-21T11:39:27.252Z,95696.34
2023-12-21T11:41:59.363Z,95680.81
2023-12-21T11:44:36.389Z,95689.47
2023-12-21T11:47:07.293Z,95671.00
2023-12-21T11:49:36.434Z,95671.38
2023-12-21T11:52:04.002Z,95672.41
2023-12-21T11:54:31.732Z,95645.28
2023-12-21T11:57:12.324Z,95642.94
2023-12-21T11:59:40.102Z,95637.09
2023-12-21T12:02:08.915Z,95630.81
2023-12-21T12:04:38.036Z,95609.91
2023-12-21T12:07:06.324Z,95601.47
2023-12-21T12:09:34.012Z,95609.00
2023-12-21T12:12:02.182Z,95558.78
2023-12-21T12:14:29.809Z,95596.38
2023-12-21T12:16:57.489Z,95597.19
2023-12-21T12:19:27.949Z,95583.38
2023-12-21T12:21:57.145Z,95585.38
2023-12-21T12:24:24.908Z,95578.88
2023-12-21T12:26:53.138Z,95624.41
2023-12-21T12:29:20.782Z,95580.25
2023-12-21T12:31:50.432Z,95558.91
2023-12-21T12:34:18.710Z,95553.88
2023-12-21T12:36:46.411Z,95553.56
2023-12-21T12:39:16.337Z,95560.56
2023-12-21T12:41:43.997Z,95531.63
2023-12-21T12:44:11.611Z,95560.81
2023-12-21T12:46:39.588Z,95569.97
2023-12-21T12:49:07.420Z,95562.25
2023-12-21T12:51:36.065Z,95566.91
2023-12-21T12:54:03.718Z,95565.22
2023-12-21T12:56:32.705Z,95580.88
2023-12-21T12:59:00.404Z,95580.19
2023-12-21T13:01:29.645Z,95545.25
2023-12-21T13:03:58.652Z,95535.59
2023-12-21T13:06:26.633Z,95555.03
2023-12-21T13:08:57.700Z,95548.66
2023-12-21T13:11:25.461Z,95543.81
2023-12-21T13:13:54.716Z,95529.00
2023-12-21T13:16:22.636Z,95571.25
2023-12-21T13:18:50.497Z,95593.34
2023-12-21T13:21:18.156Z,95603.75
2023-12-21T13:23:45.757Z,95608.19
2023-12-21T13:26:14.797Z,95618.28
2023-12-21T13:28:44.462Z,95588.38
2023-12-21T13:31:15.282Z,95578.97
2023-12-21T13:33:43.305Z,95604.44
2023-12-21T13:36:11.180Z,95594.41
2023-12-21T13:38:39.273Z,95568.16
2023-12-21T13:41:09.717Z,95574.34
2023-12-21T13:43:38.173Z,95556.44
2023-12-21T13:46:07.938Z,95551.41
2023-12-21T13:48:37.079Z,95549.47
2023-12-21T13:51:05.051Z,95548.06
2023-12-21T13:53:33.371Z,95551.69
2023-12-21T13:56:01.284Z,95553.91
2023-12-21T13:58:29.089Z,95559.38
2023-12-21T14:00:57.283Z,95551.03
2023-12-21T14:03:25.303Z,95558.56
2023-12-21T14:05:54.290Z,95565.06
2023-12-21T14:08:22.286Z,95579.66
2023-12-21T14:10:50.006Z,95569.03
2023-12-21T14:13:17.723Z,95566.22
2023-12-21T14:15:45.375Z,95598.81
2023-12-21T14:18:12.997Z,95573.81
2023-12-21T14:20:40.618Z,95567.97
2023-12-21T14:23:10.147Z,95573.13
2023-12-21T14:25:37.833Z,95569.31
2023-12-21T14:28:06.049Z,95549.38
2023-12-21T14:30:33.757Z,95565.59
2023-12-21T14:33:01.466Z,95561.25
2023-12-21T14:35:29.261Z,95555.66
2023-12-21T14:37:56.994Z,95535.22
2023-12-21T14:40:27.590Z,95553.56
2023-12-21T14:44:38.202Z,95554.59
2023-12-21T14:47:05.999Z,95542.28
2023-12-21T14:49:33.837Z,95543.25
2023-12-21T14:52:02.687Z,95546.75
2023-12-21T14:54:31.932Z,95559.03
2023-12-21T14:57:01.143Z,95561.25
2023-12-21T14:59:28.794Z,95563.91
2023-12-21T15:01:58.470Z,95552.31
2023-12-21T15:04:26.471Z,95552.31
2023-12-21T15:06:54.947Z,95542.38
2023-12-21T15:09:22.800Z,95541.53
2023-12-21T15:11:50.455Z,95556.34
2023-12-21T15:14:18.102Z,95538.69
2023-12-21T15:16:45.829Z,95518.25
2023-12-21T15:19:15.135Z,95537.44
2023-12-21T15:21:42.904Z,95528.50
2023-12-21T15:24:10.584Z,95515.81
2023-12-21T15:26:38.186Z,95544.09
2023-12-21T15:29:08.711Z,95519.56
2023-12-21T15:31:37.263Z,95522.59
2023-12-21T15:34:05.128Z,95536.22
2023-12-21T15:36:36.705Z,95510.31
2023-12-21T15:39:06.085Z,95493.06
2023-12-21T15:41:33.859Z,95508.34
2023-12-21T15:44:01.941Z,95514.72
2023-12-21T15:46:30.088Z,95507.75
2023-12-21T15:48:58.317Z,95506.13
2023-12-21T15:51:26.032Z,95509.22
2023-12-21T15:53:55.336Z,95480.25
2023-12-21T15:56:22.808Z,95499.63
2023-12-21T15:58:50.536Z,95484.81
2023-12-21T16:01:20.582Z,95497.16
2023-12-21T16:03:48.470Z,95478.47
2023-12-21T16:06:16.278Z,95472.16
2023-12-21T16:08:43.970Z,95473.34
2023-12-21T16:11:13.201Z,95472.69
2023-12-21T16:13:40.832Z,95456.63
2023-12-21T16:16:08.911Z,95466.72
2023-12-21T16:18:36.587Z,95445.97
2023-12-21T16:21:04.485Z,95443.06
2023-12-21T16:23:32.414Z,95447.22
2023-12-21T16:26:00.500Z,95446.31
2023-12-21T16:28:29.579Z,95444.72
2023-12-21T16:30:57.417Z,95442.81
2023-12-21T16:33:25.336Z,95435.44
2023-12-21T16:35:53.118Z,95457.88
2023-12-21T16:38:20.778Z,95440.00
2023-12-21T16:40:48.595Z,95468.44
2023-12-21T16:43:16.295Z,95478.59
2023-12-21T16:45:45.296Z,95477.03
2023-12-21T16:48:14.607Z,95482.50
2023-12-21T16:50:43.467Z,95471.22
2023-12-21T16:53:11.237Z,95464.63
2023-12-21T16:55:38.890Z,95459.59
2023-12-21T16:58:08.115Z,95462.56
2023-12-21T17:00:35.964Z,95488.88
2023-12-21T17:03:05.953Z,95492.53
2023-12-21T17:05:33.855Z,95489.53
2023-12-21T17:08:01.733Z,95505.25
2023-12-21T17:10:29.370Z,95502.22
2023-12-21T17:12:58.035Z,95513.91
2023-12-21T17:15:28.789Z,95515.88
2023-12-21T17:17:59.144Z,95505.66
2023-12-21T17:20:31.459Z,95513.13
2023-12-21T17:23:00.850Z,95498.66
2023-12-21T17:25:28.607Z,95522.59
2023-12-21T17:27:57.261Z,95510.69
2023-12-21T17:30:26.217Z,95516.53
2023-12-21T17:32:54.219Z,95489.06
2023-12-21T17:35:21.882Z,95475.25
2023-12-21T17:37:51.219Z,95466.81
2023-12-21T17:40:19.052Z,95473.44
2023-12-21T17:42:46.697Z,95490.22
2023-12-21T17:45:14.991Z,95467.41
2023-12-21T17:47:42.692Z,95459.88
2023-12-21T17:50:11.600Z,95467.72
2023-12-21T17:52:39.408Z,95458.78
2023-12-21T17:55:10.509Z,95459.38
2023-12-21T17:57:38.464Z,95463.50
2023-12-21T18:00:07.228Z,95466.75
2023-12-21T18:02:34.946Z,95465.41
2023-12-21T18:05:02.668Z,95443.22
2023-12-21T18:07:30.590Z,95477.44
2023-12-21T18:09:58.290Z,95460.16
2023-12-21T18:12:27.395Z,95475.56
2023-12-21T18:14:54.981Z,95465.88
2023-12-21T18:17:22.748Z,95463.91
2023-12-21T18:19:50.487Z,95459.41
2023-12-21T18:22:18.220Z,95462.22
2023-12-21T18:24:47.709Z,95466.56
2023-12-21T18:27:15.571Z,95473.50
2023-12-21T18:29:44.494Z,95470.56
2023-12-21T18:32:12.116Z,95462.91
2023-12-21T18:34:40.177Z,95445.84
2023-12-21T18:37:08.038Z,95447.56
2023-12-21T18:39:35.746Z,95453.97
2023-12-21T18:42:03.364Z,95444.63
2023-12-21T18:44:30.997Z,95461.38
2023-12-21T18:46:59.928Z,95474.84
2023-12-21T18:49:27.639Z,95459.09
2023-12-21T18:51:55.256Z,95453.69
2023-12-21T18:54:22.878Z,95453.00
2023-12-21T18:56:50.687Z,95450.34
2023-12-21T18:59:18.316Z,95472.50
2023-12-21T19:01:45.939Z,95448.56
2023-12-21T19:04:17.204Z,95443.34
2023-12-21T19:06:45.078Z,95462.47
2023-12-21T19:09:16.190Z,95448.81
2023-12-21T19:11:43.804Z,95472.59
2023-12-21T19:14:11.446Z,95490.53
2023-12-21T19:16:45.062Z,95485.22
2023-12-21T19:19:13.371Z,95478.50
2023-12-21T19:21:46.979Z,95497.63
2023-12-21T19:24:14.716Z,95527.25
2023-12-21T19:26:42.708Z,95522.38
2023-12-21T19:29:10.912Z,95543.66
2023-12-21T19:31:39.046Z,95534.31
2023-12-21T19:34:06.689Z,95537.81
2023-12-21T19:36:34.384Z,95536.66
2023-12-21T19:39:05.365Z,95554.97
2023-12-21T19:41:33.025Z,95544.09
2023-12-21T19:44:00.703Z,95553.75
2023-12-21T19:46:28.411Z,95540.47
2023-12-21T19:48:56.074Z,95523.50
2023-12-21T19:51:24.977Z,95548.75
2023-12-21T19:53:52.597Z,95545.13
2023-12-21T19:56:21.534Z,95558.84
2023-12-21T19:58:50.185Z,95578.75
2023-12-21T20:01:17.910Z,95546.69
2023-12-21T20:03:45.555Z,95559.31
2023-12-21T20:06:13.334Z,95562.41
2023-12-21T20:08:41.720Z,95567.22
2023-12-21T20:11:09.373Z,95565.97
2023-12-21T20:13:40.513Z,95584.50
2023-12-21T20:16:10.704Z,95573.13
2023-12-21T20:18:38.445Z,95566.19
2023-12-21T20:21:06.274Z,95557.84
2023-12-21T20:23:33.991Z,95567.56
2023-12-21T20:26:01.785Z,95554.94
2023-12-21T20:28:29.465Z,95572.06
2023-12-21T20:30:58.502Z,95565.19
2023-12-21T20:33:27.657Z,95587.25
2023-12-21T20:35:55.279Z,95571.66
2023-12-21T20:38:22.912Z,95586.28
2023-12-21T20:40:50.610Z,95597.50
2023-12-21T20:43:19.929Z,95601.25
2023-12-21T20:45:47.808Z,95594.56
2023-12-21T20:48:16.748Z,95592.94
2023-12-21T20:50:45.059Z,95603.28
2023-12-21T20:53:12.758Z,95572.81
2023-12-21T20:55:41.582Z,95563.09
2023-12-21T20:58:10.805Z,95556.78
2023-12-21T21:00:38.861Z,95595.84
2023-12-21T21:03:06.881Z,95595.16
2023-12-21T21:05:35.946Z,95590.84
2023-12-21T21:08:03.679Z,95588.13
2023-12-21T21:10:31.350Z,95594.78
2023-12-21T21:13:01.643Z,95636.28
2023-12-21T21:15:29.384Z,95641.16
2023-12-21T21:17:57.647Z,95608.31
2023-12-21T21:20:25.575Z,95629.88
2023-12-21T21:22:54.695Z,95627.13
2023-12-21T21:25:22.431Z,95625.91
2023-12-21T21:27:50.394Z,95623.56
2023-12-21T21:30:54.506Z,95641.50
2023-12-21T21:33:06.748Z,95639.19
2023-12-21T21:35:34.562Z,95643.13
2023-12-21T21:38:03.833Z,95637.72
2023-12-21T21:40:31.386Z,95649.19
2023-12-21T21:42:59.061Z,95676.28
2023-12-21T21:45:26.714Z,95659.38
2023-12-21T21:47:54.696Z,95680.63
2023-12-21T21:50:22.362Z,95679.38
2023-12-21T21:52:50.121Z,95689.19
2023-12-21T21:55:19.159Z,95672.13
2023-12-21T21:57:47.038Z,95670.00
2023-12-21T22:00:16.055Z,95650.28
2023-12-21T22:02:43.713Z,95671.88
2023-12-21T22:05:11.924Z,95643.63
2023-12-21T22:07:41.190Z,95656.31
2023-12-21T22:10:08.911Z,95655.47
2023-12-21T22:12:37.955Z,95663.09
2023-12-21T22:15:06.404Z,95677.06
2023-12-21T22:17:34.086Z,95659.16
2023-12-21T22:20:01.824Z,95640.66
2023-12-21T22:22:29.574Z,95627.28
2023-12-21T22:24:57.298Z,95650.72
2023-12-21T22:27:25.172Z,95647.69
2023-12-21T22:29:54.188Z,95635.63
2023-12-21T22:32:21.980Z,95650.81
2023-12-21T22:34:50.033Z,95657.16
2023-12-21T22:37:19.004Z,95664.72
2023-12-21T22:39:47.007Z,95642.22
2023-12-21T22:42:16.430Z,95653.47
2023-12-21T22:44:44.155Z,95654.94
2023-12-21T22:47:13.499Z,95680.16
2023-12-21T22:49:41.235Z,95679.66
2023-12-21T22:52:08.983Z,95669.59
2023-12-21T22:54:36.701Z,95658.16
2023-12-21T22:57:04.917Z,95659.13
2023-12-21T22:59:32.975Z,95666.53
2023-12-21T23:02:01.739Z,95672.13
2023-12-21T23:04:30.907Z,95665.97
2023-12-21T23:06:58.469Z,95671.84
2023-12-21T23:09:26.423Z,95682.03
2023-12-21T23:11:54.047Z,95699.66
2023-12-21T23:14:21.721Z,95675.19
2023-12-21T23:16:49.512Z,95688.63
2023-12-21T23:19:17.441Z,95692.88
2023-12-21T23:21:46.527Z,95682.78
2023-12-21T23:24:14.246Z,95685.28
2023-12-21T23:26:43.184Z,95678.88
2023-12-21T23:29:10.915Z,95695.47
2023-12-21T23:31:38.944Z,95691.09
2023-12-21T23:34:06.766Z,95696.41
2023-12-21T23:36:34.572Z,95692.78
2023-12-21T23:39:03.835Z,95692.06
2023-12-21T23:41:31.514Z,95711.38
2023-12-21T23:43:59.351Z,95711.38
2023-12-21T23:46:27.119Z,95679.81
2023-12-21T23:48:54.906Z,95705.69
2023-12-21T23:51:22.719Z,95708.00
2023-12-21T23:53:50.367Z,95715.56
2023-12-21T23:56:19.569Z,95705.84
2023-12-21T23:58:47.103Z,95707.91
